Time;durP1;ratioP1;P1;durP2;ratioP2;P2;SDS_P1;SDS_P2;PMS_P1;PMS_P2;Temp;Humidity;BMP_temperature;BMP_pressure;BME280_temperature;BME280_humidity;BME280_pressure;Samples;Min_cycle;Max_cycle;Signal;HPM_P1;HPM_P2
2022/11/18 00:00:27;;;;;;;4.10;1.07;;;;;;;;;;5022593;22;20240;-89
2022/11/18 00:03:31;;;;;;;2.47;0.90;;;;;;;;;;4991097;28;20197;-88
2022/11/18 00:06:35;;;;;;;1.77;0.90;;;;;;;;;;4983514;28;20189;-88
2022/11/18 00:09:39;;;;;;;3.83;0.90;;;;;;;;;;4994882;28;20695;-88
2022/11/18 00:16:08;;;;;;;2.40;1.00;;;;;;;;;;4994882;28;20181;-88
2022/11/18 00:19:14;;;;;;;1.07;0.80;;;;;;;;;;4983222;28;20178;-88
2022/11/18 00:22:18;;;;;;;1.80;0.90;;;;;;;;;;5002650;28;20563;-88
2022/11/18 00:25:22;;;;;;;1.90;0.90;;;;;;;;;;5013982;28;20181;-88
2022/11/18 00:28:26;;;;;;;1.80;0.80;;;;;;;;;;5002976;28;20632;-89
2022/11/18 00:31:30;;;;;;;2.97;0.70;;;;;;;;;;5014494;28;20648;-88
2022/11/18 00:34:34;;;;;;;1.00;0.87;;;;;;;;;;5013896;28;20172;-88
2022/11/18 00:37:38;;;;;;;1.93;0.60;;;;;;;;;;5003222;28;20188;-88
2022/11/18 00:40:43;;;;;;;1.13;0.67;;;;;;;;;;5014336;28;20220;-88
2022/11/18 00:43:47;;;;;;;5.73;0.60;;;;;;;;;;5003299;28;20181;-88
2022/11/18 00:46:51;;;;;;;1.23;0.70;;;;;;;;;;5014617;28;20647;-88
2022/11/18 00:49:56;;;;;;;1.30;0.80;;;;;;;;;;5013912;28;20602;-88
2022/11/18 00:53:00;;;;;;;0.80;0.70;;;;;;;;;;5013518;28;20185;-88
2022/11/18 00:56:04;;;;;;;2.90;1.10;;;;;;;;;;5012879;28;20184;-88
2022/11/18 00:59:09;;;;;;;1.00;0.60;;;;;;;;;;5002410;28;20181;-88
2022/11/18 01:02:13;;;;;;;1.00;0.60;;;;;;;;;;5002170;28;20633;-88
2022/11/18 01:05:17;;;;;;;2.07;0.70;;;;;;;;;;5002708;28;20176;-88
2022/11/18 01:08:21;;;;;;;1.10;0.70;;;;;;;;;;5013379;28;20180;-88
2022/11/18 01:14:59;;;;;;;1.17;0.60;;;;;;;;;;5001778;28;20544;-87
2022/11/18 01:18:03;;;;;;;1.67;0.57;;;;;;;;;;5021423;28;20635;-88
2022/11/18 01:21:07;;;;;;;1.33;0.70;;;;;;;;;;5021123;28;20208;-88
2022/11/18 01:24:12;;;;;;;1.60;0.70;;;;;;;;;;5021475;28;20176;-88
2022/11/18 01:27:16;;;;;;;1.50;0.60;;;;;;;;;;5032054;28;20199;-88
2022/11/18 01:30:21;;;;;;;1.73;0.70;;;;;;;;;;5020821;28;20232;-88
2022/11/18 01:33:25;;;;;;;1.07;0.60;;;;;;;;;;5021056;28;20184;-88
2022/11/18 01:36:30;;;;;;;2.90;0.70;;;;;;;;;;5021068;28;20177;-88
2022/11/18 01:39:34;;;;;;;1.13;0.50;;;;;;;;;;5032228;28;20574;-88
2022/11/18 01:42:38;;;;;;;0.80;0.60;;;;;;;;;;5032092;28;20627;-88
2022/11/18 01:45:44;;;;;;;0.73;0.50;;;;;;;;;;5032168;28;20184;-88
2022/11/18 01:48:54;;;;;;;1.10;0.60;;;;;;;;;;5031531;28;20184;-88
2022/11/18 01:51:57;;;;;;;0.60;0.50;;;;;;;;;;5020699;28;20192;-88
2022/11/18 01:55:11;;;;;;;3.77;0.80;;;;;;;;;;5042865;28;20538;-88
2022/11/18 01:58:34;;;;;;;1.37;0.70;;;;;;;;;;5031964;28;20180;-88
2022/11/18 02:01:38;;;;;;;0.90;0.50;;;;;;;;;;5020907;28;20185;-88
2022/11/18 02:04:47;;;;;;;1.50;0.63;;;;;;;;;;5020348;28;20200;-88
2022/11/18 02:07:51;;;;;;;2.33;0.43;;;;;;;;;;5020207;28;20180;-88
2022/11/18 02:10:55;;;;;;;0.80;0.47;;;;;;;;;;5020374;28;20224;-88
2022/11/18 02:14:01;;;;;;;1.27;0.50;;;;;;;;;;5043121;28;20185;-88
2022/11/18 02:17:18;;;;;;;0.93;0.63;;;;;;;;;;5031786;28;20184;-88
2022/11/18 02:20:33;;;;;;;1.70;0.67;;;;;;;;;;5031785;28;20208;-88
2022/11/18 02:24:11;;;;;;;1.17;0.80;;;;;;;;;;5032033;28;20192;-88
2022/11/18 02:27:58;;;;;;;0.60;0.50;;;;;;;;;;5020515;28;20180;-88
2022/11/18 02:31:28;;;;;;;1.13;0.53;;;;;;;;;;5020576;28;20227;-88
2022/11/18 02:34:45;;;;;;;1.13;0.60;;;;;;;;;;5020013;28;20184;-89
2022/11/18 02:38:01;;;;;;;0.73;0.50;;;;;;;;;;5042794;28;20184;-89
2022/11/18 02:41:09;;;;;;;0.73;0.50;;;;;;;;;;5020072;28;20216;-89
2022/11/18 02:44:15;;;;;;;1.87;0.50;;;;;;;;;;5020157;28;20192;-88
2022/11/18 02:47:21;;;;;;;0.60;0.50;;;;;;;;;;5019842;28;20535;-89
2022/11/18 02:50:29;;;;;;;1.47;0.60;;;;;;;;;;5030607;28;20236;-88
2022/11/18 02:53:34;;;;;;;0.50;0.40;;;;;;;;;;5042175;28;20631;-89
2022/11/18 02:56:40;;;;;;;0.80;0.70;;;;;;;;;;5030567;28;20204;-88
2022/11/18 02:59:44;;;;;;;1.20;0.60;;;;;;;;;;5030655;28;20228;-89
2022/11/18 03:02:49;;;;;;;1.20;0.60;;;;;;;;;;5019370;28;20191;-89
2022/11/18 03:06:02;;;;;;;1.30;0.80;;;;;;;;;;5020746;28;20180;-90
2022/11/18 03:09:12;;;;;;;0.80;0.50;;;;;;;;;;5019294;28;20192;-89
2022/11/18 03:12:28;;;;;;;1.43;0.60;;;;;;;;;;5019708;28;20189;-90
2022/11/18 03:15:50;;;;;;;3.33;0.70;;;;;;;;;;5030754;28;20179;-89
2022/11/18 03:18:54;;;;;;;0.70;0.70;;;;;;;;;;5019663;28;20643;-89
2022/11/18 03:22:16;;;;;;;1.00;0.70;;;;;;;;;;5030580;28;20631;-89
2022/11/18 03:26:08;;;;;;;1.37;0.60;;;;;;;;;;5030054;28;20196;-90
2022/11/18 03:29:20;;;;;;;2.23;0.80;;;;;;;;;;5018886;28;20180;-90
2022/11/18 03:32:27;;;;;;;1.50;0.60;;;;;;;;;;5019168;28;20535;-90
2022/11/18 03:35:36;;;;;;;1.07;0.70;;;;;;;;;;5019202;28;20180;-90
2022/11/18 03:38:46;;;;;;;1.80;0.90;;;;;;;;;;5031565;28;20176;-90
2022/11/18 03:42:06;;;;;;;0.77;0.70;;;;;;;;;;5020494;28;20177;-90
2022/11/18 03:45:24;;;;;;;0.67;0.63;;;;;;;;;;5020533;28;20184;-89
2022/11/18 03:48:33;;;;;;;1.07;0.73;;;;;;;;;;5020776;28;20184;-90
2022/11/18 03:51:43;;;;;;;1.03;0.60;;;;;;;;;;5020520;28;20558;-89
2022/11/18 03:54:51;;;;;;;1.30;0.70;;;;;;;;;;5033285;28;20185;-89
2022/11/18 03:58:12;;;;;;;2.07;0.70;;;;;;;;;;5028691;28;20176;-89
2022/11/18 04:01:23;;;;;;;5.93;3.20;;;;;;;;;;5038341;28;20224;-90
2022/11/18 04:04:27;;;;;;;5.03;2.30;;;;;;;;;;5039151;28;20243;-90
2022/11/18 04:07:34;;;;;;;3.27;1.40;;;;;;;;;;5038581;28;20180;-90
2022/11/18 04:11:09;;;;;;;5.63;1.10;;;;;;;;;;5026917;28;20216;-90
2022/11/18 04:14:37;;;;;;;2.87;1.40;;;;;;;;;;5049290;28;20626;-89
2022/11/18 04:17:42;;;;;;;3.97;1.00;;;;;;;;;;5025462;28;20173;-90
2022/11/18 04:20:46;;;;;;;0.70;0.60;;;;;;;;;;5024681;28;20208;-89
2022/11/18 04:23:50;;;;;;;2.27;0.90;;;;;;;;;;5035556;28;20192;-90
2022/11/18 04:26:55;;;;;;;5.17;1.20;;;;;;;;;;5034781;28;20631;-90
2022/11/18 04:29:59;;;;;;;1.90;1.00;;;;;;;;;;5033860;28;20223;-90
2022/11/18 04:33:04;;;;;;;0.90;0.70;;;;;;;;;;5024992;28;20181;-90
2022/11/18 04:36:08;;;;;;;2.37;1.00;;;;;;;;;;5036996;28;20180;-90
2022/11/18 04:39:12;;;;;;;1.97;1.00;;;;;;;;;;5024536;28;20188;-90
2022/11/18 04:42:16;;;;;;;1.57;0.83;;;;;;;;;;5035646;28;20173;-90
2022/11/18 04:45:20;;;;;;;1.00;0.73;;;;;;;;;;5024420;28;20180;-90
2022/11/18 04:48:24;;;;;;;0.80;0.67;;;;;;;;;;5023700;28;20176;-90
2022/11/18 04:51:28;;;;;;;1.33;1.00;;;;;;;;;;5023088;28;20223;-90
2022/11/18 04:54:32;;;;;;;0.97;0.80;;;;;;;;;;5034439;28;20184;-91
2022/11/18 04:57:36;;;;;;;1.23;0.90;;;;;;;;;;5023024;28;20181;-90
2022/11/18 05:00:40;;;;;;;1.80;0.77;;;;;;;;;;5033657;28;20231;-91
2022/11/18 05:03:45;;;;;;;1.00;0.80;;;;;;;;;;5034152;28;20195;-90
2022/11/18 05:06:49;;;;;;;0.80;0.80;;;;;;;;;;5033578;28;20180;-90
2022/11/18 05:09:53;;;;;;;2.53;0.80;;;;;;;;;;5033527;28;20216;-89
2022/11/18 05:12:57;;;;;;;2.13;0.70;;;;;;;;;;5022229;28;20188;-90
2022/11/18 05:16:01;;;;;;;0.60;0.60;;;;;;;;;;5044672;28;20184;-90
2022/11/18 05:19:06;;;;;;;0.50;0.50;;;;;;;;;;5044652;28;20200;-90
2022/11/18 05:22:10;;;;;;;0.90;0.50;;;;;;;;;;5022540;28;20180;-91
2022/11/18 05:25:14;;;;;;;0.50;0.50;;;;;;;;;;5033787;28;20184;-90
2022/11/18 05:28:18;;;;;;;2.57;0.50;;;;;;;;;;5044723;28;20180;-89
2022/11/18 05:31:22;;;;;;;0.30;0.30;;;;;;;;;;5021456;28;20591;-90
2022/11/18 05:34:26;;;;;;;0.53;0.40;;;;;;;;;;5021824;28;20176;-90
2022/11/18 05:37:31;;;;;;;0.40;0.40;;;;;;;;;;5032557;28;20180;-90
2022/11/18 05:40:35;;;;;;;0.70;0.60;;;;;;;;;;5033260;28;20204;-90
2022/11/18 05:43:39;;;;;;;0.50;0.33;;;;;;;;;;5032438;28;20172;-89
2022/11/18 05:46:43;;;;;;;0.60;0.50;;;;;;;;;;5029083;28;20196;-88
2022/11/18 05:49:48;;;;;;;0.90;0.40;;;;;;;;;;5013410;28;20667;-88
2022/11/18 05:52:52;;;;;;;0.60;0.40;;;;;;;;;;5001384;28;20173;-88
2022/11/18 05:56:03;;;;;;;0.60;0.30;;;;;;;;;;5012743;28;20182;-88
2022/11/18 05:59:07;;;;;;;0.73;0.57;;;;;;;;;;5001099;28;20200;-88
2022/11/18 06:02:17;;;;;;;1.20;0.50;;;;;;;;;;5013634;28;20638;-86
2022/11/18 06:05:23;;;;;;;1.00;0.70;;;;;;;;;;5012732;28;20197;-88
2022/11/18 06:08:31;;;;;;;0.57;0.57;;;;;;;;;;5004944;28;20185;-83
2022/11/18 06:11:42;;;;;;;1.53;0.70;;;;;;;;;;5005306;28;20683;-83
2022/11/18 06:15:04;;;;;;;2.70;1.10;;;;;;;;;;5014799;28;20196;-86
2022/11/18 06:18:17;;;;;;;3.87;1.20;;;;;;;;;;5001738;28;20181;-83
2022/11/18 06:21:21;;;;;;;1.93;0.70;;;;;;;;;;5012200;28;20217;-88
2022/11/18 06:24:26;;;;;;;0.83;0.50;;;;;;;;;;5000954;28;20181;-89
2022/11/18 06:27:30;;;;;;;0.60;0.50;;;;;;;;;;5011878;28;20177;-88
2022/11/18 06:30:34;;;;;;;0.70;0.50;;;;;;;;;;5011900;28;20225;-86
2022/11/18 06:33:38;;;;;;;1.33;0.70;;;;;;;;;;5001628;28;20182;-87
2022/11/18 06:36:42;;;;;;;0.40;0.37;;;;;;;;;;5001159;28;20180;-87
2022/11/18 06:39:47;;;;;;;3.33;2.87;;;;;;;;;;5000925;28;20216;-87
2022/11/18 06:49:38;;;;;;;1.17;1.10;;;;;;;;;;5011348;28;20565;-86
2022/11/18 06:52:42;;;;;;;0.80;0.80;;;;;;;;;;5000425;28;20188;-87
2022/11/18 06:55:46;;;;;;;1.77;1.67;;;;;;;;;;4999169;28;20200;-86
2022/11/18 06:58:56;;;;;;;3.33;2.03;;;;;;;;;;5012015;28;20193;-87
2022/11/18 07:02:00;;;;;;;1.80;1.30;;;;;;;;;;5012081;28;20624;-86
2022/11/18 07:05:05;;;;;;;2.43;1.40;;;;;;;;;;4998534;28;20197;-86
2022/11/18 07:08:09;;;;;;;3.90;1.97;;;;;;;;;;5003019;28;20539;-86
2022/11/18 07:11:16;;;;;;;3.40;3.10;;;;;;;;;;5003063;28;20561;-85
2022/11/18 07:14:20;;;;;;;4.07;2.60;;;;;;;;;;4999547;28;20200;-85
2022/11/18 07:17:24;;;;;;;1.77;1.53;;;;;;;;;;5022792;28;20563;-85
2022/11/18 07:20:28;;;;;;;1.73;1.13;;;;;;;;;;5000720;28;20216;-85
2022/11/18 07:23:33;;;;;;;2.15;1.92;;;;;;;;;;5000144;28;20683;-86
2022/11/18 07:26:38;;;;;;;2.70;1.30;;;;;;;;;;5001380;28;20177;-85
2022/11/18 07:29:42;;;;;;;2.73;2.00;;;;;;;;;;5011511;28;20220;-86
2022/11/18 07:32:46;;;;;;;2.97;2.60;;;;;;;;;;5000528;28;20172;-85
2022/11/18 07:35:51;;;;;;;2.63;1.97;;;;;;;;;;5011048;28;20181;-85
2022/11/18 07:38:57;;;;;;;2.20;1.93;;;;;;;;;;5012088;28;20172;-86
2022/11/18 07:42:02;;;;;;;4.97;2.27;;;;;;;;;;5000282;28;20200;-85
2022/11/18 07:45:08;;;;;;;1.60;1.50;;;;;;;;;;5000147;28;20635;-85
2022/11/18 07:48:12;;;;;;;3.10;1.70;;;;;;;;;;4999620;28;20200;-86
2022/11/18 07:51:18;;;;;;;1.53;1.43;;;;;;;;;;5011283;28;20695;-86
2022/11/18 07:54:23;;;;;;;0.87;0.87;;;;;;;;;;5011542;28;20181;-86
2022/11/18 07:57:27;;;;;;;4.13;0.93;;;;;;;;;;5011301;28;20181;-86
2022/11/18 08:00:31;;;;;;;0.67;0.67;;;;;;;;;;5000089;28;20568;-86
2022/11/18 08:03:36;;;;;;;0.87;0.70;;;;;;;;;;5000254;28;20639;-86
2022/11/18 08:06:40;;;;;;;1.70;1.00;;;;;;;;;;5001679;28;20180;-86
2022/11/18 08:09:45;;;;;;;1.87;1.17;;;;;;;;;;5014966;28;20216;-85
2022/11/18 08:12:51;;;;;;;1.13;0.90;;;;;;;;;;5014539;28;20660;-90
2022/11/18 08:15:59;;;;;;;1.47;1.00;;;;;;;;;;5002927;28;20188;-90
2022/11/18 08:19:04;;;;;;;5.17;2.20;;;;;;;;;;5012993;28;20177;-90
2022/11/18 08:22:08;;;;;;;1.97;1.73;;;;;;;;;;5000602;28;20632;-90
2022/11/18 08:25:13;;;;;;;1.67;1.20;;;;;;;;;;5001844;28;20176;-89
2022/11/18 08:28:17;;;;;;;5.10;1.87;;;;;;;;;;5012213;28;20192;-90
2022/11/18 08:31:24;;;;;;;1.20;1.00;;;;;;;;;;5024094;28;20221;-89
2022/11/18 08:34:28;;;;;;;3.63;1.10;;;;;;;;;;5002602;28;20182;-90
2022/11/18 08:37:32;;;;;;;2.03;1.40;;;;;;;;;;5013533;28;20181;-90
2022/11/18 08:40:41;;;;;;;1.10;1.00;;;;;;;;;;5013407;28;20212;-90
2022/11/18 08:43:46;;;;;;;1.40;1.17;;;;;;;;;;5013872;28;20181;-90
2022/11/18 08:46:50;;;;;;;1.47;0.90;;;;;;;;;;5013512;28;20177;-90
2022/11/18 08:49:54;;;;;;;0.80;0.77;;;;;;;;;;5002228;28;20216;-90
2022/11/18 08:52:58;;;;;;;0.60;0.50;;;;;;;;;;5013651;28;20660;-90
2022/11/18 08:56:02;;;;;;;5.83;5.23;;;;;;;;;;5013430;28;20177;-90
2022/11/18 08:59:07;;;;;;;3.27;3.07;;;;;;;;;;5002013;28;20204;-90
2022/11/18 09:02:17;;;;;;;0.93;0.83;;;;;;;;;;5002319;28;20172;-90
2022/11/18 09:05:21;;;;;;;0.60;0.60;;;;;;;;;;5013216;28;20192;-90
2022/11/18 09:08:27;;;;;;;0.60;0.60;;;;;;;;;;5002209;28;20628;-90
2022/11/18 09:11:31;;;;;;;0.60;0.60;;;;;;;;;;5001510;28;20201;-90
2022/11/18 09:14:35;;;;;;;0.60;0.50;;;;;;;;;;5001717;28;20571;-90
2022/11/18 09:17:39;;;;;;;0.50;0.50;;;;;;;;;;5001255;28;20173;-91
2022/11/18 09:20:53;;;;;;;0.60;0.47;;;;;;;;;;5001744;28;20220;-90
2022/11/18 09:23:57;;;;;;;0.60;0.50;;;;;;;;;;5001929;28;20181;-90
2022/11/18 09:27:03;;;;;;;1.00;0.90;;;;;;;;;;5002034;28;20185;-90
2022/11/18 09:30:08;;;;;;;2.20;0.87;;;;;;;;;;5001684;28;20699;-91
2022/11/18 09:33:14;;;;;;;1.30;0.90;;;;;;;;;;5024012;28;20205;-91
2022/11/18 09:36:20;;;;;;;1.00;0.90;;;;;;;;;;5001647;28;20177;-90
2022/11/18 09:39:24;;;;;;;0.93;0.83;;;;;;;;;;5001373;28;20667;-92
2022/11/18 09:43:16;;;;;;;0.87;0.87;;;;;;;;;;5012814;28;20198;-92
2022/11/18 09:46:35;;;;;;;2.23;1.60;;;;;;;;;;5013324;28;20181;-92
2022/11/18 09:49:42;;;;;;;1.10;1.00;;;;;;;;;;5001608;28;20213;-92
2022/11/18 09:53:14;;;;;;;0.90;0.70;;;;;;;;;;5000976;28;20224;-92
2022/11/18 09:56:19;;;;;;;2.20;0.50;;;;;;;;;;5001178;28;20185;-92
2022/11/18 09:59:26;;;;;;;5.33;4.93;;;;;;;;;;5000891;28;20177;-92
2022/11/18 10:02:39;;;;;;;1.90;1.80;;;;;;;;;;5001165;28;20177;-92
2022/11/18 10:06:02;;;;;;;0.70;0.50;;;;;;;;;;5001294;28;20189;-92
2022/11/18 10:09:33;;;;;;;0.83;0.77;;;;;;;;;;5000926;28;20189;-92
2022/11/18 10:12:51;;;;;;;1.20;0.87;;;;;;;;;;5011910;28;20208;-92
2022/11/18 10:16:07;;;;;;;1.53;1.27;;;;;;;;;;5012006;28;20189;-92
2022/11/18 10:19:38;;;;;;;1.67;0.90;;;;;;;;;;5000746;28;20182;-92
2022/11/18 10:22:49;;;;;;;0.77;0.77;;;;;;;;;;5000764;28;20185;-92
2022/11/18 10:25:53;;;;;;;0.43;0.43;;;;;;;;;;5000363;28;20181;-92
2022/11/18 10:28:58;;;;;;;1.33;0.50;;;;;;;;;;5011903;28;20180;-92
2022/11/18 10:32:09;;;;;;;0.80;0.63;;;;;;;;;;5000425;28;20209;-92
2022/11/18 10:35:35;;;;;;;0.93;0.67;;;;;;;;;;5011826;28;20189;-91
2022/11/18 10:38:39;;;;;;;1.60;1.17;;;;;;;;;;5000466;28;20181;-92
2022/11/18 10:41:50;;;;;;;0.73;0.70;;;;;;;;;;5000474;28;20292;-92
2022/11/18 10:44:55;;;;;;;0.70;0.60;;;;;;;;;;5011602;28;20189;-92
2022/11/18 10:48:07;;;;;;;1.20;0.80;;;;;;;;;;5000219;28;20181;-92
2022/11/18 10:51:23;;;;;;;0.80;0.50;;;;;;;;;;5010755;28;20217;-92
2022/11/18 10:54:27;;;;;;;2.43;0.43;;;;;;;;;;4999636;28;20201;-92
2022/11/18 10:57:37;;;;;;;1.17;0.57;;;;;;;;;;4999965;28;20173;-92
2022/11/18 11:00:46;;;;;;;1.63;0.97;;;;;;;;;;4999839;28;20568;-92
2022/11/18 11:04:03;;;;;;;8.33;7.00;;;;;;;;;;5000492;28;20556;-92
2022/11/18 11:07:27;;;;;;;12.07;10.87;;;;;;;;;;5011019;28;20185;-92
2022/11/18 11:10:31;;;;;;;6.43;5.93;;;;;;;;;;5000567;28;20216;-91
2022/11/18 11:13:42;;;;;;;2.87;2.67;;;;;;;;;;5022607;28;20204;-92
2022/11/18 11:16:52;;;;;;;1.43;1.33;;;;;;;;;;5011691;28;20189;-92
2022/11/18 11:20:09;;;;;;;1.10;1.00;;;;;;;;;;5022684;28;20216;-92
2022/11/18 11:23:14;;;;;;;1.03;0.80;;;;;;;;;;5000342;28;20185;-92
2022/11/18 11:26:45;;;;;;;1.00;0.97;;;;;;;;;;5011481;28;20628;-92
2022/11/18 11:30:15;;;;;;;0.50;0.50;;;;;;;;;;5022715;28;20224;-92
2022/11/18 11:33:41;;;;;;;0.57;0.40;;;;;;;;;;5011301;28;20204;-92
2022/11/18 11:37:06;;;;;;;0.50;0.40;;;;;;;;;;5011214;28;20189;-92
2022/11/18 11:40:41;;;;;;;1.10;0.53;;;;;;;;;;5011406;28;20213;-93
2022/11/18 11:44:20;;;;;;;0.87;0.80;;;;;;;;;;5000120;28;20564;-92
2022/11/18 11:47:56;;;;;;;1.00;0.90;;;;;;;;;;5000015;28;20189;-92
2022/11/18 11:51:25;;;;;;;1.33;0.60;;;;;;;;;;5022117;28;20216;-92
2022/11/18 11:54:44;;;;;;;1.43;0.70;;;;;;;;;;5000262;28;20168;-92
2022/11/18 11:58:27;;;;;;;2.30;0.50;;;;;;;;;;5022410;28;20189;-91
2022/11/18 12:01:38;;;;;;;0.60;0.60;;;;;;;;;;4999327;28;20209;-89
2022/11/18 12:04:51;;;;;;;1.53;1.00;;;;;;;;;;5021831;28;20529;-90
2022/11/18 12:08:13;;;;;;;0.50;0.50;;;;;;;;;;4999350;28;20193;-89
2022/11/18 12:11:32;;;;;;;0.70;0.60;;;;;;;;;;5010000;28;20217;-89
2022/11/18 12:14:49;;;;;;;1.53;0.53;;;;;;;;;;4999073;28;20173;-89
2022/11/18 12:18:12;;;;;;;0.70;0.30;;;;;;;;;;5010049;28;20544;-89
2022/11/18 12:21:44;;;;;;;1.33;0.90;;;;;;;;;;4998737;28;20216;-89
2022/11/18 12:24:49;;;;;;;1.07;0.50;;;;;;;;;;5010260;28;20181;-89
2022/11/18 12:27:58;;;;;;;0.53;0.40;;;;;;;;;;4998956;28;20185;-89
2022/11/18 12:31:14;;;;;;;1.93;0.60;;;;;;;;;;4999610;28;20212;-89
2022/11/18 12:34:24;;;;;;;1.20;0.50;;;;;;;;;;5011379;28;20169;-89
2022/11/18 12:37:29;;;;;;;0.43;0.43;;;;;;;;;;5000074;28;20200;-89
2022/11/18 12:40:36;;;;;;;1.07;0.50;;;;;;;;;;5010992;28;20221;-89
2022/11/18 12:43:46;;;;;;;0.73;0.40;;;;;;;;;;5011604;28;20173;-89
2022/11/18 12:46:52;;;;;;;0.50;0.50;;;;;;;;;;5011223;28;20553;-89
2022/11/18 12:50:14;;;;;;;0.67;0.50;;;;;;;;;;5016482;28;20575;-89
2022/11/18 12:53:57;;;;;;;0.87;0.80;;;;;;;;;;5031398;28;20205;-89
2022/11/18 12:57:17;;;;;;;2.50;2.30;;;;;;;;;;4974079;28;20187;-89
2022/11/18 13:00:21;;;;;;;4.83;4.43;;;;;;;;;;4978113;28;20234;-89
2022/11/18 13:03:27;;;;;;;17.27;14.93;;;;;;;;;;5021330;28;20181;-89
2022/11/18 13:06:34;;;;;;;5.80;5.30;;;;;;;;;;5032868;28;20185;-89
2022/11/18 13:09:38;;;;;;;2.70;2.50;;;;;;;;;;5021000;28;20216;-89
2022/11/18 13:12:43;;;;;;;1.23;1.13;;;;;;;;;;5020397;28;20204;-89
2022/11/18 13:19:21;;;;;;;1.40;1.30;;;;;;;;;;5020052;28;20185;-89
2022/11/18 13:25:49;;;;;;;7.23;6.37;;;;;;;;;;5030538;28;20181;-89
2022/11/18 13:29:21;;;;;;;2.67;2.47;;;;;;;;;;5019064;28;20177;-89
2022/11/18 13:32:27;;;;;;;3.20;0.70;;;;;;;;;;5018628;28;20567;-89
2022/11/18 13:35:31;;;;;;;1.97;0.80;;;;;;;;;;5007184;28;20572;-89
2022/11/18 13:38:35;;;;;;;0.73;0.73;;;;;;;;;;5027959;28;20200;-89
2022/11/18 13:41:39;;;;;;;1.07;0.70;;;;;;;;;;5016533;28;20652;-89
2022/11/18 13:44:55;;;;;;;6.20;5.60;;;;;;;;;;5005686;28;20655;-89
2022/11/18 13:48:07;;;;;;;4.90;4.40;;;;;;;;;;5004999;28;20181;-89
2022/11/18 13:51:11;;;;;;;4.97;2.70;;;;;;;;;;5004422;28;20220;-89
2022/11/18 13:54:23;;;;;;;19.73;17.73;;;;;;;;;;5004406;28;20209;-89
2022/11/18 13:57:29;;;;;;;3.93;2.80;;;;;;;;;;5014709;28;20636;-89
2022/11/18 14:00:34;;;;;;;5.90;2.90;;;;;;;;;;5013933;28;20294;-89
2022/11/18 14:03:52;;;;;;;2.43;2.07;;;;;;;;;;5013521;28;20628;-89
2022/11/18 14:07:34;;;;;;;4.17;3.87;;;;;;;;;;5001554;28;20192;-89
2022/11/18 14:10:43;;;;;;;1.57;1.40;;;;;;;;;;4963327;28;20222;-89
2022/11/18 14:13:53;;;;;;;1.33;1.23;;;;;;;;;;4964143;28;20203;-89
2022/11/18 14:17:19;;;;;;;1.23;0.80;;;;;;;;;;5001050;28;20544;-89
2022/11/18 14:20:25;;;;;;;1.33;0.80;;;;;;;;;;5012096;28;20576;-89
2022/11/18 14:23:35;;;;;;;0.77;0.77;;;;;;;;;;5001342;28;20505;-89
2022/11/18 14:26:39;;;;;;;0.70;0.60;;;;;;;;;;5012380;28;20181;-89
2022/11/18 14:29:49;;;;;;;2.07;0.67;;;;;;;;;;5012309;28;20584;-89
2022/11/18 14:33:18;;;;;;;1.07;0.80;;;;;;;;;;5023212;28;20204;-89
2022/11/18 14:36:22;;;;;;;3.30;3.07;;;;;;;;;;5012118;28;20180;-89
2022/11/18 14:39:29;;;;;;;1.70;1.60;;;;;;;;;;5000684;28;20217;-89
2022/11/18 14:42:33;;;;;;;1.57;1.30;;;;;;;;;;5011341;28;20663;-89
2022/11/18 14:45:38;;;;;;;3.80;3.10;;;;;;;;;;5000316;28;20663;-89
2022/11/18 14:48:43;;;;;;;1.20;1.10;;;;;;;;;;5000803;28;20636;-89
2022/11/18 14:51:48;;;;;;;1.07;0.97;;;;;;;;;;5011433;28;20644;-89
2022/11/18 14:54:52;;;;;;;1.30;1.10;;;;;;;;;;5022758;28;20217;-89
2022/11/18 14:57:56;;;;;;;11.90;7.97;;;;;;;;;;5000443;28;20185;-89
2022/11/18 15:01:01;;;;;;;6.27;4.37;;;;;;;;;;5001490;28;20703;-89
2022/11/18 15:04:06;;;;;;;9.50;5.97;;;;;;;;;;5011608;28;20194;-89
2022/11/18 15:07:13;;;;;;;3.47;2.27;;;;;;;;;;5000143;28;20177;-89
2022/11/18 15:10:17;;;;;;;4.60;3.40;;;;;;;;;;5011219;28;20216;-89
2022/11/18 15:13:21;;;;;;;3.47;3.13;;;;;;;;;;5000007;28;20209;-89
2022/11/18 15:16:28;;;;;;;3.10;2.43;;;;;;;;;;5010513;28;20196;-88
2022/11/18 15:19:32;;;;;;;3.17;1.77;;;;;;;;;;5022708;28;20216;-89
2022/11/18 15:22:36;;;;;;;1.70;1.60;;;;;;;;;;5022228;28;20184;-89
2022/11/18 15:25:40;;;;;;;2.87;1.83;;;;;;;;;;4999988;28;20173;-89
2022/11/18 15:28:45;;;;;;;1.90;1.77;;;;;;;;;;5010850;28;20173;-89
2022/11/18 15:31:50;;;;;;;2.57;1.80;;;;;;;;;;4999626;28;20177;-89
2022/11/18 15:34:54;;;;;;;3.10;2.80;;;;;;;;;;4999897;28;20204;-89
2022/11/18 15:37:58;;;;;;;5.03;3.50;;;;;;;;;;4999747;28;20177;-89
2022/11/18 15:41:03;;;;;;;2.70;2.43;;;;;;;;;;5010664;28;20216;-89
2022/11/18 15:44:09;;;;;;;3.03;2.50;;;;;;;;;;5011144;28;20536;-89
2022/11/18 15:47:13;;;;;;;2.53;2.33;;;;;;;;;;5010835;28;20173;-89
2022/11/18 15:50:17;;;;;;;4.93;2.40;;;;;;;;;;5010617;28;20212;-89
2022/11/18 15:53:21;;;;;;;3.77;2.97;;;;;;;;;;4999187;28;20208;-89
2022/11/18 15:56:29;;;;;;;3.30;2.17;;;;;;;;;;5010479;28;20190;-89
2022/11/18 15:59:33;;;;;;;2.60;2.40;;;;;;;;;;5010552;28;20229;-89
2022/11/18 16:02:37;;;;;;;2.90;2.50;;;;;;;;;;4999527;28;20624;-89
2022/11/18 16:05:41;;;;;;;4.57;4.10;;;;;;;;;;5022126;28;20196;-90
2022/11/18 16:08:45;;;;;;;11.40;5.57;;;;;;;;;;4999451;28;20205;-89
2022/11/18 16:18:38;;;;;;;3.83;3.17;;;;;;;;;;5022195;28;20189;-89
2022/11/18 16:21:46;;;;;;;3.70;3.27;;;;;;;;;;4999710;28;20177;-89
2022/11/18 16:24:50;;;;;;;70.00;43.50;;;;;;;;;;4999113;28;20181;-89
2022/11/18 16:27:54;;;;;;;25.40;18.47;;;;;;;;;;5002659;28;20181;-90
2022/11/18 16:34:24;;;;;;;5.77;4.17;;;;;;;;;;5038116;28;20205;-89
2022/11/18 16:37:28;;;;;;;4.20;2.97;;;;;;;;;;5014381;28;20181;-89
2022/11/18 16:40:33;;;;;;;27.30;24.53;;;;;;;;;;5002931;28;20220;-90
2022/11/18 16:43:37;;;;;;;11.13;10.03;;;;;;;;;;5002853;28;20177;-90
2022/11/18 16:46:45;;;;;;;6.17;4.70;;;;;;;;;;5014133;28;20655;-89
2022/11/18 16:49:49;;;;;;;4.37;3.47;;;;;;;;;;5002678;28;20224;-89
2022/11/18 16:52:54;;;;;;;4.60;3.53;;;;;;;;;;5014229;28;20181;-90
2022/11/18 16:56:02;;;;;;;5.10;2.97;;;;;;;;;;5014246;28;20169;-89
2022/11/18 16:59:17;;;;;;;3.57;2.77;;;;;;;;;;5013726;28;20193;-89
2022/11/18 17:02:22;;;;;;;3.53;3.23;;;;;;;;;;5025674;28;20200;-89
2022/11/18 17:05:26;;;;;;;4.67;3.60;;;;;;;;;;5002277;28;20200;-89
2022/11/18 17:08:35;;;;;;;9.13;6.53;;;;;;;;;;5014743;28;20173;-89
2022/11/18 17:11:39;;;;;;;7.30;6.43;;;;;;;;;;5013633;28;20181;-89
2022/11/18 17:14:43;;;;;;;5.07;4.00;;;;;;;;;;5024287;28;20675;-89
2022/11/18 17:17:47;;;;;;;3.87;3.50;;;;;;;;;;5024569;28;20188;-89
2022/11/18 17:20:51;;;;;;;4.33;3.60;;;;;;;;;;5013374;28;20216;-89
2022/11/18 17:23:56;;;;;;;7.77;5.40;;;;;;;;;;5013069;28;20196;-89
2022/11/18 17:27:00;;;;;;;4.00;3.60;;;;;;;;;;5013013;28;20197;-89
2022/11/18 17:30:05;;;;;;;3.67;2.50;;;;;;;;;;5001740;28;20213;-89
2022/11/18 17:33:09;;;;;;;4.37;2.17;;;;;;;;;;5001655;28;20624;-89
2022/11/18 17:36:16;;;;;;;3.33;2.60;;;;;;;;;;5001559;28;20177;-89
2022/11/18 17:39:20;;;;;;;22.43;13.60;;;;;;;;;;5012313;28;20509;-89
2022/11/18 17:42:25;;;;;;;54.43;36.57;;;;;;;;;;5013010;28;20184;-89
2022/11/18 17:45:28;;;;;;;26.50;22.13;;;;;;;;;;5012688;28;20172;-88
2022/11/18 17:48:33;;;;;;;10.00;8.97;;;;;;;;;;5023473;28;20181;-89
2022/11/18 17:51:37;;;;;;;6.03;3.57;;;;;;;;;;5012211;28;20177;-89
2022/11/18 17:54:41;;;;;;;8.07;4.10;;;;;;;;;;5023400;28;20197;-90
2022/11/18 17:57:45;;;;;;;10.93;5.60;;;;;;;;;;5023461;28;20185;-88
2022/11/18 18:00:49;;;;;;;34.87;24.30;;;;;;;;;;5005066;28;20232;-88
2022/11/18 18:03:54;;;;;;;15.30;11.53;;;;;;;;;;5017000;28;20196;-91
2022/11/18 18:06:58;;;;;;;6.57;5.70;;;;;;;;;;4995055;28;20208;-89
2022/11/18 18:10:02;;;;;;;4.57;2.27;;;;;;;;;;4997175;28;20696;-89
2022/11/18 18:16:32;;;;;;;4.27;2.30;;;;;;;;;;5015595;28;20166;-91
2022/11/18 18:19:36;;;;;;;5.40;2.30;;;;;;;;;;5003693;28;20217;-90
2022/11/18 18:22:40;;;;;;;5.27;2.00;;;;;;;;;;5003208;28;20178;-90
2022/11/18 18:25:44;;;;;;;2.60;1.63;;;;;;;;;;5003817;28;20178;-90
2022/11/18 18:28:48;;;;;;;3.70;1.50;;;;;;;;;;5003112;28;20178;-91
2022/11/18 18:31:52;;;;;;;2.80;1.80;;;;;;;;;;5003753;28;20540;-90
2022/11/18 18:34:57;;;;;;;4.43;1.90;;;;;;;;;;4992520;28;20564;-90
2022/11/18 18:38:01;;;;;;;4.43;2.00;;;;;;;;;;5003266;28;20640;-91
2022/11/18 18:41:11;;;;;;;3.93;1.90;;;;;;;;;;5003571;28;20691;-90
2022/11/18 18:44:16;;;;;;;2.20;1.90;;;;;;;;;;5014806;28;20443;-90
2022/11/18 18:47:20;;;;;;;2.53;1.87;;;;;;;;;;5003492;28;20181;-90
2022/11/18 18:50:23;;;;;;;5.50;1.93;;;;;;;;;;5002663;28;20558;-90
2022/11/18 18:53:29;;;;;;;4.23;2.13;;;;;;;;;;5003387;28;20178;-90
2022/11/18 18:56:33;;;;;;;4.73;2.27;;;;;;;;;;5017201;28;20582;-90
2022/11/18 18:59:37;;;;;;;5.23;2.30;;;;;;;;;;5009953;28;20227;-91
2022/11/18 19:02:42;;;;;;;3.73;2.30;;;;;;;;;;4992002;28;20177;-91
2022/11/18 19:05:46;;;;;;;5.53;2.20;;;;;;;;;;5007595;28;20204;-91
2022/11/18 19:08:50;;;;;;;3.10;2.33;;;;;;;;;;5011722;28;20620;-91
2022/11/18 19:15:18;;;;;;;5.07;2.57;;;;;;;;;;5011135;28;20229;-90
2022/11/18 19:18:23;;;;;;;3.60;2.30;;;;;;;;;;5011231;28;20185;-90
2022/11/18 19:21:27;;;;;;;5.90;2.60;;;;;;;;;;4985976;28;20229;-91
2022/11/18 19:24:31;;;;;;;5.23;2.53;;;;;;;;;;5013871;28;20549;-90
2022/11/18 19:27:37;;;;;;;3.93;2.40;;;;;;;;;;4991491;28;20201;-91